Time;durP1;ratioP1;P1;durP2;ratioP2;P2;SDS_P1;SDS_P2;PMS_P1;PMS_P2;Temp;Humidity;BMP_temperature;BMP_pressure;BME280_temperature;BME280_humidity;BME280_pressure;Samples;Min_cycle;Max_cycle;Signal;HPM_P1;HPM_P2
2023/12/01 00:02:10;;;;;;;20.40;8.53;;;;;;;2.11;100.00;99034.28;5064932;28;20736;-70
2023/12/01 00:04:37;;;;;;;15.63;7.43;;;;;;;2.16;100.00;99031.75;5062624;28;20690;-68
2023/12/01 00:07:04;;;;;;;16.17;7.37;;;;;;;2.09;100.00;99025.50;5066168;28;20202;-67
2023/12/01 00:09:31;;;;;;;16.43;7.07;;;;;;;2.11;100.00;99026.44;5065603;28;20202;-68
2023/12/01 00:11:58;;;;;;;12.97;6.30;;;;;;;2.08;100.00;99043.75;5040143;28;20221;-68
2023/12/01 00:14:24;;;;;;;14.60;5.80;;;;;;;2.09;100.00;99043.78;5064648;28;20232;-71
2023/12/01 00:16:50;;;;;;;12.97;6.40;;;;;;;2.06;100.00;99028.06;5063358;28;20198;-70
2023/12/01 00:19:17;;;;;;;12.23;5.00;;;;;;;2.14;100.00;99028.25;5048363;28;20227;-68
2023/12/01 00:21:43;;;;;;;12.33;5.60;;;;;;;2.16;100.00;99009.16;5060449;28;20227;-68
2023/12/01 00:24:10;;;;;;;15.17;5.70;;;;;;;2.13;100.00;98992.53;5063473;28;20235;-67
2023/12/01 00:26:36;;;;;;;12.10;5.57;;;;;;;2.13;100.00;99018.63;5055217;28;21467;-68
2023/12/01 00:29:03;;;;;;;10.57;5.13;;;;;;;2.14;100.00;99025.63;5057353;28;20215;-70
2023/12/01 00:31:30;;;;;;;10.53;5.03;;;;;;;2.12;100.00;99027.31;5066221;28;20218;-68
2023/12/01 00:33:56;;;;;;;13.37;5.13;;;;;;;2.11;100.00;99026.44;5061898;28;20208;-68
2023/12/01 00:36:22;;;;;;;10.67;4.77;;;;;;;2.13;100.00;99029.09;5063625;28;20265;-69
2023/12/01 00:38:49;;;;;;;10.80;4.67;;;;;;;2.13;100.00;99036.91;5046376;28;20680;-68
2023/12/01 00:41:15;;;;;;;12.83;5.37;;;;;;;2.08;100.00;99023.75;5066091;28;20317;-68
2023/12/01 00:43:42;;;;;;;14.80;5.17;;;;;;;2.08;100.00;99020.25;5060874;28;20257;-69
2023/12/01 00:46:08;;;;;;;13.30;5.27;;;;;;;2.03;100.00;99040.16;5059479;28;20213;-68
2023/12/01 00:48:35;;;;;;;13.27;5.83;;;;;;;2.06;100.00;99040.22;5060118;28;20287;-68
2023/12/01 00:51:02;;;;;;;13.80;5.60;;;;;;;2.07;100.00;99048.09;5065029;28;20224;-69
2023/12/01 00:53:29;;;;;;;11.83;5.20;;;;;;;2.07;100.00;99047.22;5047140;28;20199;-69
2023/12/01 00:55:55;;;;;;;14.07;5.73;;;;;;;2.03;100.00;99043.66;5060051;28;20680;-70
2023/12/01 00:58:22;;;;;;;14.80;5.43;;;;;;;2.06;100.00;99046.31;5057490;28;20668;-68
2023/12/01 01:00:48;;;;;;;10.90;4.70;;;;;;;2.05;100.00;99030.63;5051694;28;20649;-67
2023/12/01 01:03:15;;;;;;;13.07;5.10;;;;;;;2.03;100.00;99042.75;5068374;28;20194;-68
2023/12/01 01:05:41;;;;;;;13.53;5.57;;;;;;;2.02;100.00;99038.38;5048999;28;20242;-71
2023/12/01 01:08:07;;;;;;;14.87;5.50;;;;;;;2.07;100.00;99036.78;5069291;28;20690;-69
2023/12/01 01:10:34;;;;;;;13.73;5.07;;;;;;;1.99;100.00;99033.06;5069523;28;20291;-68
2023/12/01 01:13:00;;;;;;;10.40;4.93;;;;;;;2.02;100.00;99030.56;5063463;28;20222;-68
2023/12/01 01:15:27;;;;;;;12.97;5.10;;;;;;;1.98;100.00;99037.38;5063153;28;20204;-68
2023/12/01 01:17:53;;;;;;;11.73;5.47;;;;;;;2.03;100.00;99047.97;5068214;28;20241;-70
2023/12/01 01:20:20;;;;;;;10.27;4.90;;;;;;;1.94;100.00;99027.72;5067821;28;20201;-70
2023/12/01 01:22:46;;;;;;;11.67;5.20;;;;;;;1.85;100.00;99025.75;5066072;28;20228;-69
2023/12/01 01:25:12;;;;;;;11.13;5.00;;;;;;;1.85;100.00;99036.19;5068893;28;20214;-66
2023/12/01 01:27:39;;;;;;;8.93;3.97;;;;;;;1.72;100.00;99041.97;5065052;28;20580;-68
2023/12/01 01:30:06;;;;;;;13.47;5.57;;;;;;;1.63;100.00;99044.31;5070274;28;20252;-70
2023/12/01 01:32:33;;;;;;;13.47;5.33;;;;;;;1.54;100.00;99063.19;5066274;28;20309;-68
2023/12/01 01:34:59;;;;;;;11.17;4.93;;;;;;;1.53;100.00;99058.81;5067089;28;20202;-68
2023/12/01 01:37:26;;;;;;;10.37;5.17;;;;;;;1.56;100.00;99060.63;5067112;28;20213;-69
2023/12/01 01:39:52;;;;;;;10.07;5.37;;;;;;;1.59;100.00;99063.31;5050994;28;20726;-70
2023/12/01 01:42:19;;;;;;;10.70;5.33;;;;;;;1.64;100.00;99063.47;5063142;28;20224;-70
2023/12/01 01:44:46;;;;;;;11.20;5.63;;;;;;;1.72;100.00;99060.22;5066523;28;20223;-69
2023/12/01 01:47:12;;;;;;;10.20;4.97;;;;;;;1.74;100.00;99062.88;5068467;28;20206;-71
2023/12/01 01:49:39;;;;;;;12.40;4.70;;;;;;;1.76;100.00;99062.06;5068586;28;20201;-70
2023/12/01 01:52:06;;;;;;;9.83;4.53;;;;;;;1.68;100.00;99055.75;5065986;28;20220;-69
2023/12/01 01:54:32;;;;;;;10.70;4.23;;;;;;;1.69;100.00;99070.59;5068380;28;20208;-68
2023/12/01 01:57:00;;;;;;;8.67;4.00;;;;;;;1.64;100.00;99060.88;5044346;28;20222;-69
2023/12/01 01:59:26;;;;;;;9.83;4.80;;;;;;;1.59;100.00;99060.72;5049147;28;20199;-68
2023/12/01 02:01:52;;;;;;;8.97;4.33;;;;;;;1.57;100.00;99045.00;5066595;28;20599;-69
2023/12/01 02:04:19;;;;;;;8.17;4.20;;;;;;;1.53;100.00;99055.34;5065837;28;20426;-69
2023/12/01 02:06:46;;;;;;;8.50;4.00;;;;;;;1.55;100.00;99057.13;5049557;28;20211;-70
2023/12/01 02:09:13;;;;;;;7.33;4.27;;;;;;;1.55;100.00;99058.88;5041442;28;20278;-68
2023/12/01 02:11:40;;;;;;;6.37;4.17;;;;;;;1.56;100.00;99073.69;5061890;28;20679;-68
2023/12/01 02:14:07;;;;;;;6.23;3.40;;;;;;;1.56;100.00;99068.47;5062475;28;20236;-69
2023/12/01 02:16:33;;;;;;;9.23;3.97;;;;;;;1.58;100.00;99075.47;5066159;28;20211;-68
2023/12/01 02:19:00;;;;;;;9.23;4.00;;;;;;;1.60;100.00;99066.81;5068548;28;20206;-69
2023/12/01 02:21:27;;;;;;;7.60;3.73;;;;;;;1.50;100.00;99069.19;5049033;28;20311;-70
2023/12/01 02:23:55;;;;;;;6.87;3.50;;;;;;;1.52;100.00;99071.81;5065673;28;20670;-69
2023/12/01 02:26:22;;;;;;;8.80;3.77;;;;;;;1.52;100.00;99080.53;5058703;28;20671;-69
2023/12/01 02:28:49;;;;;;;7.83;3.40;;;;;;;1.45;100.00;99090.75;5064880;28;20249;-69
2023/12/01 02:31:15;;;;;;;7.50;4.13;;;;;;;1.48;100.00;99094.34;5065336;28;20245;-69
2023/12/01 02:33:42;;;;;;;9.13;4.70;;;;;;;1.45;100.00;99093.38;5063298;28;20202;-72
2023/12/01 02:36:11;;;;;;;9.53;4.27;;;;;;;1.46;100.00;99093.41;5067144;28;20201;-66
2023/12/01 02:38:38;;;;;;;6.37;3.70;;;;;;;1.50;100.00;99103.09;5061463;28;20206;-69
2023/12/01 02:41:05;;;;;;;7.83;4.23;;;;;;;1.53;100.00;99110.13;5064038;28;20255;-69
2023/12/01 02:43:31;;;;;;;8.87;4.30;;;;;;;1.55;100.00;99098.88;5061602;28;20208;-67
2023/12/01 02:45:57;;;;;;;7.57;3.83;;;;;;;1.61;100.00;99106.03;5068183;28;20223;-71
2023/12/01 02:48:24;;;;;;;7.23;3.47;;;;;;;1.67;100.00;99097.47;5063140;28;20205;-69
2023/12/01 02:50:50;;;;;;;8.90;4.30;;;;;;;1.81;100.00;99093.50;5065218;28;20295;-69
2023/12/01 02:53:17;;;;;;;8.07;3.70;;;;;;;1.83;100.00;99110.97;5065344;28;20201;-70
2023/12/01 02:55:45;;;;;;;8.37;4.07;;;;;;;1.81;100.00;99107.44;5063437;28;20734;-69
2023/12/01 02:58:12;;;;;;;7.23;3.67;;;;;;;1.81;100.00;99114.38;5057167;28;20293;-71
2023/12/01 03:00:42;;;;;;;7.00;3.50;;;;;;;1.88;100.00;99106.75;5056359;28;20206;-69
2023/12/01 03:03:09;;;;;;;5.33;2.93;;;;;;;1.81;100.00;99098.72;5044058;28;20203;-69
2023/12/01 03:05:36;;;;;;;8.57;3.70;;;;;;;1.80;100.00;99108.28;5065735;28;20223;-70
2023/12/01 03:08:03;;;;;;;6.00;3.23;;;;;;;1.83;100.00;99112.69;5061708;28;20658;-70
2023/12/01 03:10:29;;;;;;;6.90;3.43;;;;;;;1.76;100.00;99111.66;5056489;28;20195;-69
2023/12/01 03:12:55;;;;;;;4.83;2.87;;;;;;;1.81;100.00;99117.00;5064378;28;20223;-68
2023/12/01 03:15:22;;;;;;;7.27;3.43;;;;;;;1.75;100.00;99103.78;5059836;28;20194;-69
2023/12/01 03:17:48;;;;;;;5.43;2.53;;;;;;;1.79;100.00;99111.75;5064056;28;20305;-69
2023/12/01 03:20:16;;;;;;;6.53;3.00;;;;;;;1.78;100.00;99102.13;5061999;28;20202;-70
2023/12/01 03:22:45;;;;;;;7.57;3.27;;;;;;;1.75;100.00;99093.34;5059045;28;20233;-71
2023/12/01 03:25:11;;;;;;;6.50;2.83;;;;;;;1.73;100.00;99101.13;5062163;28;20215;-71
2023/12/01 03:27:43;;;;;;;6.20;3.03;;;;;;;1.70;100.00;99094.94;5050529;28;20198;-69
2023/12/01 03:30:15;;;;;;;6.57;2.90;;;;;;;1.68;100.00;99091.41;5064096;28;20648;-69
2023/12/01 03:32:47;;;;;;;8.03;3.17;;;;;;;1.73;100.00;99098.53;5066080;28;20710;-69
2023/12/01 03:35:16;;;;;;;4.60;2.83;;;;;;;1.68;100.00;99088.81;5060967;28;20198;-70
2023/12/01 03:37:44;;;;;;;5.57;3.10;;;;;;;1.58;100.00;99082.41;5068376;28;20201;-69
2023/12/01 03:40:13;;;;;;;8.43;3.60;;;;;;;1.62;100.00;99083.41;5066888;28;20198;-69
2023/12/01 03:42:44;;;;;;;6.67;2.87;;;;;;;1.58;100.00;99087.66;5066963;28;20258;-69
2023/12/01 03:45:12;;;;;;;6.93;2.83;;;;;;;1.59;100.00;99089.41;5066336;28;20216;-69
2023/12/01 03:47:39;;;;;;;7.83;3.27;;;;;;;1.57;100.00;99091.09;5065202;28;20202;-69
2023/12/01 03:50:11;;;;;;;6.00;3.47;;;;;;;1.57;100.00;99096.31;5064558;28;20203;-69
2023/12/01 03:52:41;;;;;;;6.60;3.53;;;;;;;1.50;100.00;99102.19;5065389;28;20651;-69
2023/12/01 03:55:09;;;;;;;7.37;3.27;;;;;;;1.58;100.00;99098.97;5046317;28;20592;-69
2023/12/01 03:57:39;;;;;;;7.83;3.27;;;;;;;1.52;100.00;99100.53;5062874;28;20670;-69
2023/12/01 04:00:16;;;;;;;7.87;3.70;;;;;;;1.48;100.00;99096.94;5045355;28;20250;-71
2023/12/01 04:02:46;;;;;;;7.10;3.43;;;;;;;1.41;100.00;99113.25;5065630;28;20219;-68
2023/12/01 04:05:22;;;;;;;6.87;3.50;;;;;;;1.38;100.00;99104.47;5065981;28;20241;-68
2023/12/01 04:07:51;;;;;;;7.63;3.43;;;;;;;1.32;100.00;99094.75;5048762;28;20245;-69
2023/12/01 04:10:22;;;;;;;5.00;3.07;;;;;;;1.32;100.00;99102.56;5063143;28;20283;-70
2023/12/01 04:12:48;;;;;;;9.00;3.73;;;;;;;1.34;100.00;99111.31;5063933;28;20701;-68
2023/12/01 04:15:17;;;;;;;7.37;3.40;;;;;;;1.38;100.00;99107.06;5063403;28;20204;-68
2023/12/01 04:17:45;;;;;;;7.23;3.23;;;;;;;1.36;100.00;99113.97;5046790;28;20215;-69
2023/12/01 04:20:21;;;;;;;8.40;3.27;;;;;;;1.40;100.00;99115.81;5060848;28;20599;-69
2023/12/01 04:22:51;;;;;;;8.00;3.40;;;;;;;1.43;100.00;99113.31;5065059;28;20585;-69
2023/12/01 04:25:17;;;;;;;7.07;3.23;;;;;;;1.41;100.00;99105.44;5064220;28;20691;-68
2023/12/01 04:27:47;;;;;;;7.10;3.70;;;;;;;1.37;100.00;99095.75;5064404;28;20302;-71
2023/12/01 04:30:15;;;;;;;6.77;3.37;;;;;;;1.44;100.00;99102.91;5066866;28;20704;-69
2023/12/01 04:32:43;;;;;;;4.87;2.53;;;;;;;1.51;100.00;99094.41;5037098;28;20293;-69
2023/12/01 04:35:10;;;;;;;7.33;3.37;;;;;;;1.49;100.00;99090.00;5064908;28;20243;-68
2023/12/01 04:37:37;;;;;;;6.70;3.13;;;;;;;1.44;100.00;99084.66;5062143;28;20211;-69
2023/12/01 04:40:13;;;;;;;5.80;3.00;;;;;;;1.41;100.00;99095.00;5066345;28;20226;-67
2023/12/01 04:42:39;;;;;;;8.57;2.80;;;;;;;1.38;100.00;99096.66;5064500;28;20230;-69
2023/12/01 04:45:10;;;;;;;5.90;3.23;;;;;;;1.39;100.00;99093.19;5064521;28;20752;-69
2023/12/01 04:47:41;;;;;;;7.90;3.00;;;;;;;1.37;100.00;99100.09;5062242;28;20216;-69
2023/12/01 04:50:12;;;;;;;5.67;2.80;;;;;;;1.35;100.00;99105.25;5063202;28;20273;-68
2023/12/01 04:52:43;;;;;;;5.57;2.87;;;;;;;1.42;100.00;99117.63;5065838;28;20226;-71
2023/12/01 04:55:14;;;;;;;5.60;2.60;;;;;;;1.41;100.00;99107.16;5063069;28;20197;-69
2023/12/01 04:57:42;;;;;;;5.87;2.73;;;;;;;1.44;100.00;99117.69;5065882;28;20198;-69
2023/12/01 05:00:20;;;;;;;8.13;3.50;;;;;;;1.43;100.00;99118.53;5039858;28;20202;-70
2023/12/01 05:03:00;;;;;;;6.67;2.90;;;;;;;1.45;100.00;99127.28;5046317;28;20246;-68
2023/12/01 05:05:29;;;;;;;5.87;3.10;;;;;;;1.46;100.00;99127.31;5064887;28;20234;-68
2023/12/01 05:07:57;;;;;;;6.53;3.03;;;;;;;1.45;100.00;99124.66;5062655;28;20276;-68
2023/12/01 05:10:27;;;;;;;5.43;3.17;;;;;;;1.41;100.00;99130.63;5064437;28;20206;-68
2023/12/01 05:12:59;;;;;;;6.67;3.10;;;;;;;1.47;100.00;99139.53;5059833;28;20227;-68
2023/12/01 05:15:28;;;;;;;6.17;3.10;;;;;;;1.49;100.00;99156.09;5066118;28;20203;-70
2023/12/01 05:17:57;;;;;;;5.60;2.90;;;;;;;1.52;100.00;99137.94;5047530;28;20208;-70
2023/12/01 05:20:27;;;;;;;5.67;2.83;;;;;;;1.52;100.00;99148.38;5066114;28;20211;-69
2023/12/01 05:22:55;;;;;;;4.10;2.37;;;;;;;1.59;100.00;99144.19;5059005;28;20254;-68
2023/12/01 05:25:25;;;;;;;5.67;3.00;;;;;;;1.54;100.00;99149.28;5061476;28;20269;-69
2023/12/01 05:27:56;;;;;;;3.40;2.00;;;;;;;1.56;100.00;99147.59;5065599;28;20201;-68
2023/12/01 05:30:27;;;;;;;4.10;1.90;;;;;;;1.54;100.00;99159.72;5042320;28;20671;-72
2023/12/01 05:32:55;;;;;;;3.83;2.17;;;;;;;1.51;100.00;99158.75;5062016;28;20223;-70
2023/12/01 05:35:22;;;;;;;4.80;2.20;;;;;;;1.51;100.00;99156.16;5062889;28;20289;-68
2023/12/01 05:37:50;;;;;;;3.40;1.80;;;;;;;1.46;100.00;99160.34;5060331;28;20289;-66
2023/12/01 05:40:25;;;;;;;3.33;1.87;;;;;;;1.44;100.00;99147.25;5064169;28;20245;-66
2023/12/01 05:42:53;;;;;;;4.63;2.23;;;;;;;1.47;100.00;99154.28;5040199;23;20235;-74
2023/12/01 05:45:22;;;;;;;5.73;1.73;;;;;;;1.48;100.00;99148.22;5023149;28;20220;-74
2023/12/01 05:47:52;;;;;;;3.57;2.13;;;;;;;1.50;100.00;99151.75;5025081;28;20591;-74
2023/12/01 05:50:23;;;;;;;5.30;2.07;;;;;;;1.46;100.00;99153.41;5008047;28;20212;-74
2023/12/01 05:52:52;;;;;;;4.43;1.83;;;;;;;1.43;100.00;99152.44;5010297;28;20203;-79
2023/12/01 05:55:29;;;;;;;5.37;2.43;;;;;;;1.44;100.00;99165.53;5011340;28;20196;-76
2023/12/01 05:58:01;;;;;;;3.33;1.83;;;;;;;1.48;100.00;99163.88;5010542;28;20204;-78
2023/12/01 06:00:29;;;;;;;2.73;1.77;;;;;;;1.50;100.00;99170.91;5011153;28;20249;-76
2023/12/01 06:03:02;;;;;;;2.97;1.53;;;;;;;1.46;100.00;99176.00;4992792;28;20204;-74
2023/12/01 06:05:29;;;;;;;3.63;2.27;;;;;;;1.49;100.00;99179.56;5007864;28;20234;-74
2023/12/01 06:07:58;;;;;;;5.83;2.00;;;;;;;1.44;100.00;99173.34;4994679;28;20196;-74
2023/12/01 06:10:26;;;;;;;5.77;2.37;;;;;;;1.41;100.00;99175.88;4993353;28;20244;-74
2023/12/01 06:12:53;;;;;;;3.17;1.97;;;;;;;1.42;100.00;99184.56;4992368;28;20270;-74
2023/12/01 06:15:19;;;;;;;3.20;2.00;;;;;;;1.42;100.00;99189.78;5012808;28;20220;-73
2023/12/01 06:17:48;;;;;;;3.63;1.87;;;;;;;1.41;100.00;99188.03;4996180;28;20252;-73
2023/12/01 06:20:19;;;;;;;4.87;2.50;;;;;;;1.45;100.00;99208.13;5013845;28;20220;-74
2023/12/01 06:22:54;;;;;;;3.10;2.10;;;;;;;1.42;100.00;99221.09;4994156;28;20205;-74
2023/12/01 06:25:26;;;;;;;5.40;2.70;;;;;;;1.42;100.00;99221.09;4990062;28;20227;-74
2023/12/01 06:27:57;;;;;;;4.00;2.30;;;;;;;1.45;100.00;99218.56;5009727;28;20295;-74
2023/12/01 06:30:26;;;;;;;3.23;2.27;;;;;;;1.45;100.00;99224.69;4999237;28;20220;-74
2023/12/01 06:32:53;;;;;;;6.77;2.93;;;;;;;1.41;100.00;99212.38;5007468;28;20683;-74
2023/12/01 06:35:21;;;;;;;3.80;2.37;;;;;;;1.41;100.00;99209.78;5004829;28;20201;-74
2023/12/01 06:37:48;;;;;;;5.20;2.90;;;;;;;1.39;100.00;99210.56;4981139;28;20201;-74
2023/12/01 06:40:17;;;;;;;5.97;2.60;;;;;;;1.38;100.00;99198.38;4990541;28;20896;-74
2023/12/01 06:42:46;;;;;;;3.33;2.23;;;;;;;1.38;100.00;99207.06;5000077;28;20696;-75
2023/12/01 06:45:16;;;;;;;5.70;2.93;;;;;;;1.38;100.00;99216.63;5005252;28;20253;-75
2023/12/01 06:47:46;;;;;;;5.17;2.40;;;;;;;1.41;100.00;99221.94;5001605;28;20279;-75
2023/12/01 06:50:14;;;;;;;5.83;2.50;;;;;;;1.36;100.00;99221.78;5008022;28;20231;-75
2023/12/01 06:52:43;;;;;;;4.87;2.67;;;;;;;1.46;100.00;99230.78;4991874;28;20280;-75
2023/12/01 06:55:09;;;;;;;3.47;2.00;;;;;;;1.45;100.00;99234.22;4986972;28;20206;-75
2023/12/01 06:57:40;;;;;;;4.37;2.77;;;;;;;1.40;100.00;99235.81;5003729;28;20200;-74
2023/12/01 07:00:09;;;;;;;4.90;2.40;;;;;;;1.40;100.00;99239.31;5005217;28;20650;-76
2023/12/01 07:02:39;;;;;;;4.90;2.27;;;;;;;1.37;100.00;99234.00;4988103;28;20227;-76
2023/12/01 07:05:07;;;;;;;4.40;2.23;;;;;;;1.43;100.00;99230.69;4997705;28;20259;-79
2023/12/01 07:07:37;;;;;;;5.70;2.73;;;;;;;1.42;100.00;99234.13;5001048;28;20233;-74
2023/12/01 07:10:05;;;;;;;5.47;2.50;;;;;;;1.44;100.00;99249.00;5003218;28;20225;-74
2023/12/01 07:12:33;;;;;;;5.87;2.43;;;;;;;1.40;100.00;99236.69;4992337;28;20220;-74
2023/12/01 07:14:59;;;;;;;3.73;2.40;;;;;;;1.43;100.00;99252.44;4979822;28;20343;-74
2023/12/01 07:17:26;;;;;;;4.73;1.90;;;;;;;1.44;100.00;99248.09;5000990;28;20447;-74
2023/12/01 07:19:52;;;;;;;3.33;2.30;;;;;;;1.36;100.00;99260.03;4987530;28;20319;-74
2023/12/01 07:22:18;;;;;;;7.40;2.97;;;;;;;1.35;100.00;99256.53;5002571;28;20395;-74
2023/12/01 07:24:45;;;;;;;4.50;2.03;;;;;;;1.32;100.00;99264.25;5006525;28;20205;-74
2023/12/01 07:27:11;;;;;;;5.30;1.90;;;;;;;1.32;100.00;99253.84;5014937;28;20267;-74
2023/12/01 07:29:39;;;;;;;4.30;1.93;;;;;;;1.29;100.00;99255.47;5006500;28;20219;-74
2023/12/01 07:32:07;;;;;;;6.57;2.27;;;;;;;1.33;100.00;99254.72;4991397;28;20200;-74
2023/12/01 07:34:34;;;;;;;3.93;2.10;;;;;;;1.39;100.00;99252.28;4985276;28;20618;-74
2023/12/01 07:37:00;;;;;;;5.50;2.53;;;;;;;1.46;100.00;99251.66;4988063;28;20204;-74
2023/12/01 07:39:27;;;;;;;4.23;2.03;;;;;;;1.43;100.00;99251.56;5007059;28;20220;-74
2023/12/01 07:41:53;;;;;;;5.80;2.23;;;;;;;1.47;100.00;99251.69;5006563;28;20218;-75
2023/12/01 07:44:20;;;;;;;6.13;2.33;;;;;;;1.49;100.00;99249.13;5006057;28;20204;-74
2023/12/01 07:46:46;;;;;;;3.33;1.90;;;;;;;1.50;100.00;99246.56;4998667;28;20220;-74
2023/12/01 07:49:13;;;;;;;3.30;1.93;;;;;;;1.51;100.00;99235.28;5006478;28;20226;-74
2023/12/01 07:51:39;;;;;;;4.50;2.10;;;;;;;1.52;100.00;99241.41;4992010;28;20227;-74
2023/12/01 07:54:09;;;;;;;2.43;1.67;;;;;;;1.50;100.00;99250.91;5005871;28;20254;-74
2023/12/01 07:56:37;;;;;;;4.10;2.20;;;;;;;1.52;100.00;99247.50;4983595;28;20197;-74
2023/12/01 07:59:05;;;;;;;3.10;2.00;;;;;;;1.50;100.00;99241.34;5013977;28;20361;-74
2023/12/01 08:01:32;;;;;;;4.17;2.17;;;;;;;1.52;100.00;99244.88;4995428;28;20271;-76
2023/12/01 08:03:58;;;;;;;4.07;2.30;;;;;;;1.61;100.00;99251.25;4996852;28;20196;-74
2023/12/01 08:06:27;;;;;;;6.03;2.30;;;;;;;1.57;100.00;99251.13;5012614;28;20208;-74
2023/12/01 08:08:54;;;;;;;4.20;2.20;;;;;;;1.59;100.00;99259.00;5006326;28;20319;-74
2023/12/01 08:11:20;;;;;;;4.67;2.20;;;;;;;1.57;100.00;99266.78;5015556;28;20207;-75
2023/12/01 08:13:48;;;;;;;3.53;2.10;;;;;;;1.57;100.00;99261.56;5009672;28;20283;-74
2023/12/01 08:16:14;;;;;;;4.37;2.70;;;;;;;1.61;100.00;99267.78;4996487;28;20199;-75
2023/12/01 08:18:41;;;;;;;7.90;2.70;;;;;;;1.62;100.00;99269.56;5001992;28;20439;-74
2023/12/01 08:21:08;;;;;;;5.60;2.70;;;;;;;1.68;100.00;99274.97;5010477;28;20207;-75
2023/12/01 08:23:36;;;;;;;6.53;2.40;;;;;;;1.68;100.00;99276.69;5011374;28;20211;-76
2023/12/01 08:26:07;;;;;;;3.93;2.00;;;;;;;1.68;100.00;99284.53;5010831;28;20480;-73
2023/12/01 08:28:33;;;;;;;4.43;2.57;;;;;;;1.63;100.00;99280.88;5004421;28;20211;-79
2023/12/01 08:31:00;;;;;;;4.23;2.37;;;;;;;1.63;100.00;99283.50;5001515;28;20353;-77
2023/12/01 08:33:26;;;;;;;6.17;2.30;;;;;;;1.66;100.00;99287.09;4978893;28;20204;-78
2023/12/01 08:35:53;;;;;;;5.50;2.67;;;;;;;1.65;100.00;99285.31;5007845;28;20192;-79
2023/12/01 08:38:21;;;;;;;5.43;2.80;;;;;;;1.69;100.00;99284.56;5008161;28;20655;-78
2023/12/01 08:40:48;;;;;;;4.27;2.33;;;;;;;1.72;100.00;99276.81;5009319;28;20771;-77
2023/12/01 08:43:20;;;;;;;4.87;2.33;;;;;;;1.71;100.00;99275.06;4996175;28;20210;-77
2023/12/01 08:45:46;;;;;;;7.33;2.90;;;;;;;1.72;100.00;99274.22;5008595;28;20216;-79
2023/12/01 08:48:13;;;;;;;4.77;2.57;;;;;;;1.69;100.00;99276.72;5008907;28;20259;-80
2023/12/01 08:50:39;;;;;;;2.90;2.20;;;;;;;1.74;100.00;99274.25;5007706;28;21085;-78
2023/12/01 08:53:07;;;;;;;5.17;2.80;;;;;;;1.79;100.00;99275.28;5009086;28;20197;-76
2023/12/01 08:55:33;;;;;;;6.63;3.30;;;;;;;1.85;100.00;99278.94;4990866;28;20525;-77
2023/12/01 08:58:00;;;;;;;5.03;3.07;;;;;;;1.87;100.00;99282.50;5008066;28;20216;-77
2023/12/01 09:00:26;;;;;;;7.10;2.67;;;;;;;1.86;100.00;99285.06;5008087;28;20216;-77
2023/12/01 09:02:52;;;;;;;6.63;3.07;;;;;;;1.88;100.00;99288.59;5002680;28;20192;-77
2023/12/01 09:05:20;;;;;;;5.47;2.80;;;;;;;1.93;100.00;99291.34;5008397;28;20717;-77
2023/12/01 09:07:47;;;;;;;6.10;2.93;;;;;;;1.96;100.00;99304.47;4990971;28;20223;-77
2023/12/01 09:10:19;;;;;;;7.00;3.20;;;;;;;1.94;100.00;99301.81;4991130;28;20499;-79
2023/12/01 09:12:47;;;;;;;5.60;2.30;;;;;;;1.91;100.00;99317.41;5006810;28;20227;-77
2023/12/01 09:15:13;;;;;;;6.10;2.80;;;;;;;1.86;100.00;99309.44;5008065;28;20284;-76
2023/12/01 09:17:40;;;;;;;5.90;3.00;;;;;;;1.81;100.00;99311.03;5007695;28;20215;-79
2023/12/01 09:20:08;;;;;;;6.37;3.27;;;;;;;1.81;100.00;99304.91;5009829;28;20234;-77
2023/12/01 09:22:36;;;;;;;6.80;3.37;;;;;;;1.85;100.00;99296.34;4995152;28;20203;-77
2023/12/01 09:25:04;;;;;;;5.77;2.70;;;;;;;1.91;100.00;99306.06;5007842;28;20196;-77
2023/12/01 09:27:33;;;;;;;6.07;3.63;;;;;;;1.92;100.00;99294.78;4994719;28;20222;-77
2023/12/01 09:30:02;;;;;;;6.63;3.10;;;;;;;1.88;100.00;99297.31;5011355;28;20771;-78
2023/12/01 09:32:28;;;;;;;5.70;2.87;;;;;;;1.85;100.00;99298.94;4994515;28;20215;-79
2023/12/01 09:34:55;;;;;;;6.53;3.23;;;;;;;1.87;100.00;99298.16;4995497;28;20686;-74
2023/12/01 09:37:23;;;;;;;9.53;3.33;;;;;;;1.92;100.00;99302.63;5012205;28;20198;-78
2023/12/01 09:39:51;;;;;;;5.73;3.27;;;;;;;1.92;100.00;99289.56;5011716;28;20304;-77
2023/12/01 09:42:19;;;;;;;7.47;3.57;;;;;;;1.88;100.00;99299.94;4994191;28;20206;-78
2023/12/01 09:44:46;;;;;;;4.40;2.80;;;;;;;1.92;100.00;99302.63;4994315;28;20196;-78
2023/12/01 09:47:17;;;;;;;6.17;3.00;;;;;;;1.95;100.00;99300.09;4994676;28;20490;-78
2023/12/01 09:49:48;;;;;;;6.23;2.60;;;;;;;1.93;100.00;99300.06;5011708;28;20216;-81
2023/12/01 09:52:14;;;;;;;8.17;2.83;;;;;;;1.97;100.00;99301.03;5009892;28;20613;-78
2023/12/01 09:54:41;;;;;;;5.10;2.87;;;;;;;1.96;100.00;99309.72;5008986;28;20287;-79
2023/12/01 09:57:29;;;;;;;6.53;2.73;;;;;;;2.00;100.00;99311.56;5011517;28;20207;-78
2023/12/01 09:59:55;;;;;;;6.50;2.57;;;;;;;2.03;100.00;99307.34;4990837;28;20235;-78
2023/12/01 10:02:22;;;;;;;5.87;3.23;;;;;;;2.09;100.00;99301.41;5011736;28;20196;-78
2023/12/01 10:04:58;;;;;;;6.87;3.57;;;;;;;2.12;100.00;99319.78;5011465;28;20262;-80
2023/12/01 10:07:25;;;;;;;6.67;3.73;;;;;;;2.11;100.00;99325.84;5011240;28;20235;-80
2023/12/01 10:09:51;;;;;;;5.20;2.90;;;;;;;2.03;100.00;99319.53;5009829;28;20222;-78
2023/12/01 10:12:18;;;;;;;7.07;3.80;;;;;;;1.98;100.00;99329.78;4994206;28;20197;-78
2023/12/01 10:14:45;;;;;;;7.30;3.23;;;;;;;1.98;100.00;99327.19;4994242;28;20200;-78
2023/12/01 10:17:12;;;;;;;6.80;3.40;;;;;;;2.06;100.00;99330.94;5010338;28;20198;-78
2023/12/01 10:19:47;;;;;;;4.83;2.90;;;;;;;2.14;100.00;99334.66;5011494;28;20602;-81
2023/12/01 10:22:19;;;;;;;5.37;2.97;;;;;;;2.16;100.00;99327.75;4993766;28;20710;-78
2023/12/01 10:24:53;;;;;;;6.30;2.93;;;;;;;2.26;100.00;99331.50;5007923;28;20227;-81
2023/12/01 10:27:20;;;;;;;6.10;3.37;;;;;;;2.33;100.00;99327.34;4993510;28;20249;-79
2023/12/01 10:29:47;;;;;;;6.07;3.13;;;;;;;2.34;100.00;99314.31;5011608;28;20232;-76
2023/12/01 10:32:20;;;;;;;6.73;3.20;;;;;;;2.37;100.00;99301.34;5011351;28;20262;-78
2023/12/01 10:34:49;;;;;;;7.17;3.53;;;;;;;2.38;100.00;99297.91;5006999;28;20200;-78
2023/12/01 10:37:16;;;;;;;6.30;3.60;;;;;;;2.43;100.00;99300.66;4993408;28;20824;-78
2023/12/01 10:39:44;;;;;;;9.40;4.07;;;;;;;2.45;100.00;99306.81;5011216;28;20305;-78
2023/12/01 10:42:12;;;;;;;7.07;3.40;;;;;;;2.42;100.00;99294.56;5010614;28;20233;-78
2023/12/01 10:44:39;;;;;;;7.10;3.67;;;;;;;2.47;100.00;99305.13;4993174;28;20197;-80
2023/12/01 10:47:06;;;;;;;7.40;2.90;;;;;;;2.47;100.00;99286.84;4989288;28;20225;-78
2023/12/01 10:49:34;;;;;;;6.93;3.80;;;;;;;2.59;100.00;99283.66;5010327;28;20216;-78
2023/12/01 10:52:01;;;;;;;6.57;3.37;;;;;;;2.63;100.00;99280.28;4992765;28;20200;-78
2023/12/01 10:54:28;;;;;;;6.50;3.20;;;;;;;2.57;100.00;99286.25;4989783;28;20210;-78
2023/12/01 10:57:04;;;;;;;5.13;2.90;;;;;;;2.57;100.00;99283.63;5009209;28;20612;-78
2023/12/01 10:59:33;;;;;;;6.07;3.50;;;;;;;2.55;100.00;99307.94;5010476;28;20716;-80
2023/12/01 11:02:00;;;;;;;6.70;3.53;;;;;;;2.48;100.00;99310.41;4992118;28;20613;-78
2023/12/01 11:04:28;;;;;;;5.33;3.00;;;;;;;2.50;100.00;99308.72;5010612;28;20232;-80
2023/12/01 11:07:20;;;;;;;6.40;3.33;;;;;;;2.56;100.00;99292.31;4988230;28;20699;-78
2023/12/01 11:10:06;;;;;;;6.50;3.53;;;;;;;2.59;100.00;99299.34;5009599;28;20229;-78
2023/12/01 11:13:04;;;;;;;5.77;2.97;;;;;;;2.54;100.00;99299.22;5009041;28;20541;-78
2023/12/01 11:15:35;;;;;;;8.63;3.37;;;;;;;2.62;100.00;99300.31;4991954;28;20200;-77
2023/12/01 11:18:01;;;;;;;4.73;2.80;;;;;;;2.64;100.00;99298.63;4994350;28;20203;-78
2023/12/01 11:20:36;;;;;;;5.87;3.13;;;;;;;2.51;100.00;99297.41;4992420;28;20461;-75
2023/12/01 11:23:09;;;;;;;4.93;2.70;;;;;;;2.49;100.00;99295.59;5009722;28;20196;-75
2023/12/01 11:25:43;;;;;;;5.07;2.93;;;;;;;2.57;100.00;99290.59;5008355;28;20194;-74
2023/12/01 11:28:25;;;;;;;6.37;3.70;;;;;;;2.61;100.00;99290.69;5008018;28;20271;-74
2023/12/01 11:31:09;;;;;;;5.27;2.73;;;;;;;2.53;100.00;99286.13;5000156;28;20697;-74
2023/12/01 11:33:50;;;;;;;5.33;2.27;;;;;;;2.41;100.00;99290.16;5009908;28;20567;-78
2023/12/01 11:36:19;;;;;;;4.03;2.37;;;;;;;2.48;100.00;99275.53;4988659;28;20203;-81
2023/12/01 11:39:08;;;;;;;8.33;3.50;;;;;;;2.49;100.00;99272.09;4989324;28;20288;-78